sensor_id;sensor_type;location;lat;lon;timestamp;temperature;humidity
19025;DHT22;9645;51.448;6.260;2024-01-06T00:00:20;6.40;99.90
19025;DHT22;9645;51.448;6.260;2024-01-06T00:02:48;6.40;99.90
19025;DHT22;9645;51.448;6.260;2024-01-06T00:05:15;6.40;99.90
19025;DHT22;9645;51.448;6.260;2024-01-06T00:07:42;6.40;99.90
19025;DHT22;9645;51.448;6.260;2024-01-06T00:10:11;6.40;99.90
19025;DHT22;9645;51.448;6.260;2024-01-06T00:12:38;6.40;99.90
19025;DHT22;9645;51.448;6.260;2024-01-06T00:15:06;6.40;99.90
19025;DHT22;9645;51.448;6.260;2024-01-06T00:17:33;6.40;99.90
19025;DHT22;9645;51.448;6.260;2024-01-06T00:20:00;6.40;99.90
19025;DHT22;9645;51.448;6.260;2024-01-06T00:22:28;6.40;99.90
19025;DHT22;9645;51.448;6.260;2024-01-06T00:24:55;6.50;99.90
19025;DHT22;9645;51.448;6.260;2024-01-06T00:27:23;6.50;99.90
19025;DHT22;9645;51.448;6.260;2024-01-06T00:29:50;6.50;99.90
19025;DHT22;9645;51.448;6.260;2024-01-06T00:32:17;6.50;99.90
19025;DHT22;9645;51.448;6.260;2024-01-06T00:34:44;6.50;99.90
19025;DHT22;9645;51.448;6.260;2024-01-06T00:37:13;6.60;99.90
19025;DHT22;9645;51.448;6.260;2024-01-06T00:39:39;6.60;99.90
19025;DHT22;9645;51.448;6.260;2024-01-06T00:42:06;6.60;99.90
19025;DHT22;9645;51.448;6.260;2024-01-06T00:44:36;6.60;99.90
19025;DHT22;9645;51.448;6.260;2024-01-06T00:47:03;6.70;99.90
19025;DHT22;9645;51.448;6.260;2024-01-06T00:49:30;6.60;99.90
19025;DHT22;9645;51.448;6.260;2024-01-06T00:51:57;6.60;99.90
19025;DHT22;9645;51.448;6.260;2024-01-06T00:54:24;6.60;99.90
19025;DHT22;9645;51.448;6.260;2024-01-06T00:56:51;6.60;99.90
19025;DHT22;9645;51.448;6.260;2024-01-06T00:59:18;6.60;99.90
19025;DHT22;9645;51.448;6.260;2024-01-06T01:01:46;6.60;99.90
19025;DHT22;9645;51.448;6.260;2024-01-06T01:04:13;6.60;99.90
19025;DHT22;9645;51.448;6.260;2024-01-06T01:06:40;6.60;99.90
19025;DHT22;9645;51.448;6.260;2024-01-06T01:09:07;6.60;99.90
19025;DHT22;9645;51.448;6.260;2024-01-06T01:11:36;6.60;99.90
19025;DHT22;9645;51.448;6.260;2024-01-06T01:14:03;6.60;99.90
19025;DHT22;9645;51.448;6.260;2024-01-06T01:16:29;6.50;99.90
19025;DHT22;9645;51.448;6.260;2024-01-06T01:18:59;6.50;99.90
19025;DHT22;9645;51.448;6.260;2024-01-06T01:21:27;6.50;99.90
19025;DHT22;9645;51.448;6.260;2024-01-06T01:23:54;6.50;99.90
19025;DHT22;9645;51.448;6.260;2024-01-06T01:26:21;6.40;99.90
19025;DHT22;9645;51.448;6.260;2024-01-06T01:28:48;6.40;99.90
19025;DHT22;9645;51.448;6.260;2024-01-06T01:31:15;6.40;99.90
19025;DHT22;9645;51.448;6.260;2024-01-06T01:33:42;6.40;99.90
19025;DHT22;9645;51.448;6.260;2024-01-06T01:36:10;6.40;99.90
19025;DHT22;9645;51.448;6.260;2024-01-06T01:38:37;6.40;99.90
19025;DHT22;9645;51.448;6.260;2024-01-06T01:41:04;6.70;99.90
19025;DHT22;9645;51.448;6.260;2024-01-06T01:43:31;6.40;99.90
19025;DHT22;9645;51.448;6.260;2024-01-06T01:45:58;6.40;99.90
19025;DHT22;9645;51.448;6.260;2024-01-06T01:48:25;6.30;99.90
19025;DHT22;9645;51.448;6.260;2024-01-06T01:50:53;6.40;99.90
19025;DHT22;9645;51.448;6.260;2024-01-06T01:53:22;6.40;99.90
19025;DHT22;9645;51.448;6.260;2024-01-06T01:55:52;6.30;99.90
19025;DHT22;9645;51.448;6.260;2024-01-06T01:58:19;6.30;99.90
19025;DHT22;9645;51.448;6.260;2024-01-06T02:00:46;6.40;99.90
19025;DHT22;9645;51.448;6.260;2024-01-06T02:03:13;6.30;99.90
19025;DHT22;9645;51.448;6.260;2024-01-06T02:05:41;6.40;99.90
19025;DHT22;9645;51.448;6.260;2024-01-06T02:08:08;6.30;99.90
19025;DHT22;9645;51.448;6.260;2024-01-06T02:10:36;6.40;99.90
19025;DHT22;9645;51.448;6.260;2024-01-06T02:13:10;6.30;99.90
19025;DHT22;9645;51.448;6.260;2024-01-06T02:15:37;6.40;99.90
19025;DHT22;9645;51.448;6.260;2024-01-06T02:18:05;6.40;99.90
19025;DHT22;9645;51.448;6.260;2024-01-06T02:20:32;6.40;99.90
19025;DHT22;9645;51.448;6.260;2024-01-06T02:23:01;6.40;99.90
19025;DHT22;9645;51.448;6.260;2024-01-06T02:25:28;6.30;99.90
19025;DHT22;9645;51.448;6.260;2024-01-06T02:27:55;6.20;99.90
19025;DHT22;9645;51.448;6.260;2024-01-06T02:30:22;6.20;99.90
19025;DHT22;9645;51.448;6.260;2024-01-06T02:32:49;6.00;99.90
19025;DHT22;9645;51.448;6.260;2024-01-06T02:35:16;5.80;99.90
19025;DHT22;9645;51.448;6.260;2024-01-06T02:37:43;5.70;99.90
19025;DHT22;9645;51.448;6.260;2024-01-06T02:40:12;5.60;99.90
19025;DHT22;9645;51.448;6.260;2024-01-06T02:42:40;5.60;99.90
19025;DHT22;9645;51.448;6.260;2024-01-06T02:45:07;5.60;99.90
19025;DHT22;9645;51.448;6.260;2024-01-06T02:47:35;5.60;99.90
19025;DHT22;9645;51.448;6.260;2024-01-06T02:50:02;5.50;99.90
19025;DHT22;9645;51.448;6.260;2024-01-06T02:52:28;5.50;99.90
19025;DHT22;9645;51.448;6.260;2024-01-06T02:54:55;5.40;99.90
19025;DHT22;9645;51.448;6.260;2024-01-06T02:57:24;5.50;99.90
19025;DHT22;9645;51.448;6.260;2024-01-06T02:59:51;5.50;99.90
19025;DHT22;9645;51.448;6.260;2024-01-06T03:02:18;5.40;99.90
19025;DHT22;9645;51.448;6.260;2024-01-06T03:04:45;5.40;99.90
19025;DHT22;9645;51.448;6.260;2024-01-06T03:07:12;5.40;99.90
19025;DHT22;9645;51.448;6.260;2024-01-06T03:09:39;5.30;99.90
19025;DHT22;9645;51.448;6.260;2024-01-06T03:12:06;5.40;99.90
19025;DHT22;9645;51.448;6.260;2024-01-06T03:14:35;5.40;99.90
19025;DHT22;9645;51.448;6.260;2024-01-06T03:17:03;5.30;99.90
19025;DHT22;9645;51.448;6.260;2024-01-06T03:19:30;5.40;99.90
19025;DHT22;9645;51.448;6.260;2024-01-06T03:21:57;5.40;99.90
19025;DHT22;9645;51.448;6.260;2024-01-06T03:24:25;5.40;99.90
19025;DHT22;9645;51.448;6.260;2024-01-06T03:26:52;5.30;99.90
19025;DHT22;9645;51.448;6.260;2024-01-06T03:29:19;5.30;99.90
19025;DHT22;9645;51.448;6.260;2024-01-06T03:31:48;5.30;99.90
19025;DHT22;9645;51.448;6.260;2024-01-06T03:34:15;5.30;99.90
19025;DHT22;9645;51.448;6.260;2024-01-06T03:36:42;5.20;99.90
19025;DHT22;9645;51.448;6.260;2024-01-06T03:39:09;5.20;99.90
19025;DHT22;9645;51.448;6.260;2024-01-06T03:41:38;5.30;99.90
19025;DHT22;9645;51.448;6.260;2024-01-06T03:44:05;5.20;99.90
19025;DHT22;9645;51.448;6.260;2024-01-06T03:46:34;5.20;99.90
19025;DHT22;9645;51.448;6.260;2024-01-06T03:49:03;5.30;99.90
19025;DHT22;9645;51.448;6.260;2024-01-06T03:51:30;5.30;99.90
19025;DHT22;9645;51.448;6.260;2024-01-06T03:53:57;5.20;99.90
19025;DHT22;9645;51.448;6.260;2024-01-06T03:56:24;5.10;99.90
19025;DHT22;9645;51.448;6.260;2024-01-06T03:58:51;5.10;99.90
19025;DHT22;9645;51.448;6.260;2024-01-06T04:01:18;5.10;99.90
19025;DHT22;9645;51.448;6.260;2024-01-06T04:03:50;5.10;99.90
19025;DHT22;9645;51.448;6.260;2024-01-06T04:06:19;5.20;99.90
19025;DHT22;9645;51.448;6.260;2024-01-06T04:08:46;5.00;99.90
19025;DHT22;9645;51.448;6.260;2024-01-06T04:11:13;5.00;99.90
19025;DHT22;9645;51.448;6.260;2024-01-06T04:13:40;5.00;99.90
19025;DHT22;9645;51.448;6.260;2024-01-06T04:16:07;5.10;99.90
19025;DHT22;9645;51.448;6.260;2024-01-06T04:18:34;6.10;99.90
19025;DHT22;9645;51.448;6.260;2024-01-06T04:21:02;5.30;99.90
19025;DHT22;9645;51.448;6.260;2024-01-06T04:23:32;5.00;99.90
19025;DHT22;9645;51.448;6.260;2024-01-06T04:25:59;5.10;99.90
19025;DHT22;9645;51.448;6.260;2024-01-06T04:28:27;5.10;99.90
19025;DHT22;9645;51.448;6.260;2024-01-06T04:30:54;5.10;99.90
19025;DHT22;9645;51.448;6.260;2024-01-06T04:33:21;5.10;99.90
19025;DHT22;9645;51.448;6.260;2024-01-06T04:35:48;5.00;99.90
19025;DHT22;9645;51.448;6.260;2024-01-06T04:38:16;6.00;99.90
19025;DHT22;9645;51.448;6.260;2024-01-06T04:40:45;5.30;99.90
19025;DHT22;9645;51.448;6.260;2024-01-06T04:43:12;5.10;99.90
19025;DHT22;9645;51.448;6.260;2024-01-06T04:45:39;5.00;99.90
19025;DHT22;9645;51.448;6.260;2024-01-06T04:48:07;5.10;99.90
19025;DHT22;9645;51.448;6.260;2024-01-06T04:50:34;5.10;99.90
19025;DHT22;9645;51.448;6.260;2024-01-06T04:53:01;5.60;99.90
19025;DHT22;9645;51.448;6.260;2024-01-06T04:55:28;5.00;99.90
19025;DHT22;9645;51.448;6.260;2024-01-06T04:57:57;5.00;99.90
19025;DHT22;9645;51.448;6.260;2024-01-06T05:00:24;5.10;99.90
19025;DHT22;9645;51.448;6.260;2024-01-06T05:02:51;5.00;99.90
19025;DHT22;9645;51.448;6.260;2024-01-06T05:05:19;5.00;99.90
19025;DHT22;9645;51.448;6.260;2024-01-06T05:07:46;5.00;99.90
19025;DHT22;9645;51.448;6.260;2024-01-06T05:10:13;5.00;99.90
19025;DHT22;9645;51.448;6.260;2024-01-06T05:12:41;5.00;99.90
19025;DHT22;9645;51.448;6.260;2024-01-06T05:15:10;5.00;99.90
19025;DHT22;9645;51.448;6.260;2024-01-06T05:17:37;5.30;99.90
19025;DHT22;9645;51.448;6.260;2024-01-06T05:20:05;4.90;99.90
19025;DHT22;9645;51.448;6.260;2024-01-06T05:22:32;5.00;99.90
19025;DHT22;9645;51.448;6.260;2024-01-06T05:24:59;5.00;99.90
19025;DHT22;9645;51.448;6.260;2024-01-06T05:27:26;5.60;99.90
19025;DHT22;9645;51.448;6.260;2024-01-06T05:29:53;5.00;99.90
19025;DHT22;9645;51.448;6.260;2024-01-06T05:32:22;5.60;99.90
19025;DHT22;9645;51.448;6.260;2024-01-06T05:34:49;4.90;99.90
19025;DHT22;9645;51.448;6.260;2024-01-06T05:37:16;5.00;99.90
19025;DHT22;9645;51.448;6.260;2024-01-06T05:39:43;4.90;99.90
19025;DHT22;9645;51.448;6.260;2024-01-06T05:42:10;4.90;99.90
19025;DHT22;9645;51.448;6.260;2024-01-06T05:44:38;5.40;99.90
19025;DHT22;9645;51.448;6.260;2024-01-06T05:47:05;5.40;99.90
19025;DHT22;9645;51.448;6.260;2024-01-06T05:49:35;4.90;99.90
19025;DHT22;9645;51.448;6.260;2024-01-06T05:52:02;4.90;99.90
19025;DHT22;9645;51.448;6.260;2024-01-06T05:54:29;4.90;99.90
19025;DHT22;9645;51.448;6.260;2024-01-06T05:56:56;4.90;99.90
19025;DHT22;9645;51.448;6.260;2024-01-06T05:59:23;5.30;99.90
19025;DHT22;9645;51.448;6.260;2024-01-06T06:01:51;5.00;99.90
19025;DHT22;9645;51.448;6.260;2024-01-06T06:04:18;4.90;99.90
19025;DHT22;9645;51.448;6.260;2024-01-06T06:06:47;4.90;99.90
19025;DHT22;9645;51.448;6.260;2024-01-06T06:09:14;4.70;99.90
19025;DHT22;9645;51.448;6.260;2024-01-06T06:11:41;4.70;99.90
19025;DHT22;9645;51.448;6.260;2024-01-06T06:14:08;5.90;99.90
19025;DHT22;9645;51.448;6.260;2024-01-06T06:16:36;4.80;99.90
19025;DHT22;9645;51.448;6.260;2024-01-06T06:19:03;4.80;99.90
19025;DHT22;9645;51.448;6.260;2024-01-06T06:21:30;5.80;99.90
19025;DHT22;9645;51.448;6.260;2024-01-06T06:24:00;4.80;99.90
19025;DHT22;9645;51.448;6.260;2024-01-06T06:26:27;4.80;99.90
19025;DHT22;9645;51.448;6.260;2024-01-06T06:28:55;4.70;99.90
19025;DHT22;9645;51.448;6.260;2024-01-06T06:31:23;4.70;99.90
19025;DHT22;9645;51.448;6.260;2024-01-06T06:33:50;4.70;99.90
19025;DHT22;9645;51.448;6.260;2024-01-06T06:36:17;4.70;99.90
19025;DHT22;9645;51.448;6.260;2024-01-06T06:38:45;4.70;99.90
19025;DHT22;9645;51.448;6.260;2024-01-06T06:41:14;4.70;99.90
19025;DHT22;9645;51.448;6.260;2024-01-06T06:43:41;4.70;99.90
19025;DHT22;9645;51.448;6.260;2024-01-06T06:46:08;4.80;99.90
19025;DHT22;9645;51.448;6.260;2024-01-06T06:48:36;4.70;99.90
19025;DHT22;9645;51.448;6.260;2024-01-06T06:51:03;4.70;99.90
19025;DHT22;9645;51.448;6.260;2024-01-06T06:53:30;4.70;99.90
19025;DHT22;9645;51.448;6.260;2024-01-06T06:55:57;4.60;99.90
19025;DHT22;9645;51.448;6.260;2024-01-06T06:58:26;4.60;99.90
19025;DHT22;9645;51.448;6.260;2024-01-06T07:00:53;4.70;99.90
19025;DHT22;9645;51.448;6.260;2024-01-06T07:03:20;4.60;99.90
19025;DHT22;9645;51.448;6.260;2024-01-06T07:05:47;4.70;99.90
19025;DHT22;9645;51.448;6.260;2024-01-06T07:08:14;4.60;99.90
19025;DHT22;9645;51.448;6.260;2024-01-06T07:10:41;4.60;99.90
19025;DHT22;9645;51.448;6.260;2024-01-06T07:13:08;4.60;99.90
19025;DHT22;9645;51.448;6.260;2024-01-06T07:15:37;4.80;99.90
19025;DHT22;9645;51.448;6.260;2024-01-06T07:18:04;5.10;99.90
19025;DHT22;9645;51.448;6.260;2024-01-06T07:20:32;4.50;99.90
19025;DHT22;9645;51.448;6.260;2024-01-06T07:22:59;4.50;99.90
19025;DHT22;9645;51.448;6.260;2024-01-06T07:25:26;4.60;99.90
19025;DHT22;9645;51.448;6.260;2024-01-06T07:27:53;4.60;99.90
19025;DHT22;9645;51.448;6.260;2024-01-06T07:30:20;5.80;99.90
19025;DHT22;9645;51.448;6.260;2024-01-06T07:32:49;4.60;99.90
19025;DHT22;9645;51.448;6.260;2024-01-06T07:35:17;4.50;99.90
19025;DHT22;9645;51.448;6.260;2024-01-06T07:37:44;4.50;99.90
19025;DHT22;9645;51.448;6.260;2024-01-06T07:40:12;4.60;99.90
19025;DHT22;9645;51.448;6.260;2024-01-06T07:42:42;4.50;99.90
19025;DHT22;9645;51.448;6.260;2024-01-06T07:45:09;4.50;99.90
19025;DHT22;9645;51.448;6.260;2024-01-06T07:47:35;4.60;99.90
19025;DHT22;9645;51.448;6.260;2024-01-06T07:50:05;4.70;99.90
19025;DHT22;9645;51.448;6.260;2024-01-06T07:52:34;4.50;99.90
19025;DHT22;9645;51.448;6.260;2024-01-06T07:55:01;4.60;99.90
19025;DHT22;9645;51.448;6.260;2024-01-06T07:57:29;4.60;99.90
19025;DHT22;9645;51.448;6.260;2024-01-06T07:59:56;4.60;99.90
19025;DHT22;9645;51.448;6.260;2024-01-06T08:02:23;5.60;99.90
19025;DHT22;9645;51.448;6.260;2024-01-06T08:04:54;4.60;99.90
19025;DHT22;9645;51.448;6.260;2024-01-06T08:07:25;4.50;99.90
19025;DHT22;9645;51.448;6.260;2024-01-06T08:09:52;4.50;99.90
19025;DHT22;9645;51.448;6.260;2024-01-06T08:12:19;5.20;99.90
19025;DHT22;9645;51.448;6.260;2024-01-06T08:14:46;5.10;99.90
19025;DHT22;9645;51.448;6.260;2024-01-06T08:17:16;4.50;99.90
19025;DHT22;9645;51.448;6.260;2024-01-06T08:19:43;5.20;99.90
19025;DHT22;9645;51.448;6.260;2024-01-06T08:22:12;4.40;99.90
19025;DHT22;9645;51.448;6.260;2024-01-06T08:24:41;5.00;99.90
19025;DHT22;9645;51.448;6.260;2024-01-06T08:27:08;4.40;99.90
19025;DHT22;9645;51.448;6.260;2024-01-06T08:29:35;4.30;99.90
19025;DHT22;9645;51.448;6.260;2024-01-06T08:32:02;4.40;99.90
19025;DHT22;9645;51.448;6.260;2024-01-06T08:34:29;4.20;99.90
19025;DHT22;9645;51.448;6.260;2024-01-06T08:36:56;4.80;99.90
19025;DHT22;9645;51.448;6.260;2024-01-06T08:39:23;4.50;99.90
19025;DHT22;9645;51.448;6.260;2024-01-06T08:41:52;4.10;99.90
19025;DHT22;9645;51.448;6.260;2024-01-06T08:44:19;4.20;99.90
19025;DHT22;9645;51.448;6.260;2024-01-06T08:46:46;4.10;99.90
19025;DHT22;9645;51.448;6.260;2024-01-06T08:49:13;4.30;99.90
19025;DHT22;9645;51.448;6.260;2024-01-06T08:51:41;4.10;99.90
19025;DHT22;9645;51.448;6.260;2024-01-06T08:54:09;4.10;99.90
19025;DHT22;9645;51.448;6.260;2024-01-06T08:56:36;4.10;99.90
19025;DHT22;9645;51.448;6.260;2024-01-06T08:59:05;4.10;99.90
19025;DHT22;9645;51.448;6.260;2024-01-06T09:01:32;4.30;99.90
19025;DHT22;9645;51.448;6.260;2024-01-06T09:04:01;4.00;99.90
19025;DHT22;9645;51.448;6.260;2024-01-06T09:06:29;4.00;99.90
19025;DHT22;9645;51.448;6.260;2024-01-06T09:08:57;4.00;99.90
19025;DHT22;9645;51.448;6.260;2024-01-06T09:11:24;3.90;99.90
19025;DHT22;9645;51.448;6.260;2024-01-06T09:13:52;3.90;99.90
19025;DHT22;9645;51.448;6.260;2024-01-06T09:16:21;4.00;99.90
19025;DHT22;9645;51.448;6.260;2024-01-06T09:18:48;3.90;99.90
19025;DHT22;9645;51.448;6.260;2024-01-06T09:21:16;3.80;99.90
19025;DHT22;9645;51.448;6.260;2024-01-06T09:23:44;3.80;99.90
19025;DHT22;9645;51.448;6.260;2024-01-06T09:26:13;3.90;99.90
19025;DHT22;9645;51.448;6.260;2024-01-06T09:28:42;3.90;99.90
19025;DHT22;9645;51.448;6.260;2024-01-06T09:31:09;3.80;99.90
19025;DHT22;9645;51.448;6.260;2024-01-06T09:33:38;3.90;99.90
19025;DHT22;9645;51.448;6.260;2024-01-06T09:36:06;3.80;99.90
19025;DHT22;9645;51.448;6.260;2024-01-06T09:38:37;3.90;99.90
19025;DHT22;9645;51.448;6.260;2024-01-06T09:41:05;3.80;99.90
19025;DHT22;9645;51.448;6.260;2024-01-06T09:43:32;3.80;99.90
19025;DHT22;9645;51.448;6.260;2024-01-06T09:46:06;3.80;99.90
19025;DHT22;9645;51.448;6.260;2024-01-06T09:48:39;3.70;99.90
19025;DHT22;9645;51.448;6.260;2024-01-06T09:51:10;3.70;99.90
19025;DHT22;9645;51.448;6.260;2024-01-06T09:53:43;3.70;99.90
19025;DHT22;9645;51.448;6.260;2024-01-06T09:56:13;3.60;99.90
19025;DHT22;9645;51.448;6.260;2024-01-06T09:58:42;3.70;99.90
19025;DHT22;9645;51.448;6.260;2024-01-06T10:01:11;3.70;99.90
19025;DHT22;9645;51.448;6.260;2024-01-06T10:03:51;3.70;99.90
19025;DHT22;9645;51.448;6.260;2024-01-06T10:06:18;3.70;99.90
19025;DHT22;9645;51.448;6.260;2024-01-06T10:08:49;3.70;99.90
19025;DHT22;9645;51.448;6.260;2024-01-06T10:11:17;3.60;99.90
19025;DHT22;9645;51.448;6.260;2024-01-06T10:13:48;3.60;99.90
19025;DHT22;9645;51.448;6.260;2024-01-06T10:16:16;3.50;99.90
19025;DHT22;9645;51.448;6.260;2024-01-06T10:18:48;3.50;99.90
19025;DHT22;9645;51.448;6.260;2024-01-06T10:21:15;3.60;99.90
19025;DHT22;9645;51.448;6.260;2024-01-06T10:23:46;3.60;99.90
19025;DHT22;9645;51.448;6.260;2024-01-06T10:26:18;3.60;99.90
19025;DHT22;9645;51.448;6.260;2024-01-06T10:28:45;3.60;99.90
19025;DHT22;9645;51.448;6.260;2024-01-06T10:31:15;3.50;99.90
19025;DHT22;9645;51.448;6.260;2024-01-06T10:33:42;3.60;99.90
19025;DHT22;9645;51.448;6.260;2024-01-06T10:36:11;3.50;99.90
19025;DHT22;9645;51.448;6.260;2024-01-06T10:38:40;3.50;99.90
19025;DHT22;9645;51.448;6.260;2024-01-06T10:41:09;3.50;99.90
19025;DHT22;9645;51.448;6.260;2024-01-06T10:43:39;3.80;99.90
19025;DHT22;9645;51.448;6.260;2024-01-06T10:46:10;3.50;99.90
19025;DHT22;9645;51.448;6.260;2024-01-06T10:48:38;4.20;99.90
19025;DHT22;9645;51.448;6.260;2024-01-06T10:51:08;3.50;99.90
19025;DHT22;9645;51.448;6.260;2024-01-06T10:53:37;3.40;99.90
19025;DHT22;9645;51.448;6.260;2024-01-06T10:56:05;3.40;99.90
19025;DHT22;9645;51.448;6.260;2024-01-06T10:58:33;3.40;99.90
19025;DHT22;9645;51.448;6.260;2024-01-06T11:01:08;4.20;99.90
19025;DHT22;9645;51.448;6.260;2024-01-06T11:03:46;4.30;99.90
19025;DHT22;9645;51.448;6.260;2024-01-06T11:06:15;4.10;99.90
19025;DHT22;9645;51.448;6.260;2024-01-06T11:09:02;3.30;99.90
19025;DHT22;9645;51.448;6.260;2024-01-06T11:14:36;3.30;99.90
19025;DHT22;9645;51.448;6.260;2024-01-06T11:17:04;4.50;99.90
19025;DHT22;9645;51.448;6.260;2024-01-06T11:19:47;2.70;99.90
19025;DHT22;9645;51.448;6.260;2024-01-06T11:22:23;3.30;99.90
19025;DHT22;9645;51.448;6.260;2024-01-06T11:24:54;3.30;99.90
19025;DHT22;9645;51.448;6.260;2024-01-06T11:27:24;3.40;99.90
19025;DHT22;9645;51.448;6.260;2024-01-06T11:29:52;3.40;99.90
19025;DHT22;9645;51.448;6.260;2024-01-06T11:32:24;3.40;99.90
19025;DHT22;9645;51.448;6.260;2024-01-06T11:34:55;3.40;99.90
19025;DHT22;9645;51.448;6.260;2024-01-06T11:37:25;3.30;99.90
19025;DHT22;9645;51.448;6.260;2024-01-06T11:39:59;3.40;99.90
19025;DHT22;9645;51.448;6.260;2024-01-06T11:42:32;3.40;99.90
19025;DHT22;9645;51.448;6.260;2024-01-06T11:45:05;3.40;99.90
19025;DHT22;9645;51.448;6.260;2024-01-06T11:47:33;3.40;99.90
19025;DHT22;9645;51.448;6.260;2024-01-06T11:50:04;3.40;99.90
19025;DHT22;9645;51.448;6.260;2024-01-06T11:52:33;3.40;99.90
19025;DHT22;9645;51.448;6.260;2024-01-06T11:55:02;3.90;99.90
19025;DHT22;9645;51.448;6.260;2024-01-06T11:57:30;3.40;99.90
19025;DHT22;9645;51.448;6.260;2024-01-06T11:59:57;3.30;99.90
19025;DHT22;9645;51.448;6.260;2024-01-06T12:02:32;3.30;99.90
19025;DHT22;9645;51.448;6.260;2024-01-06T12:05:00;3.30;99.90
19025;DHT22;9645;51.448;6.260;2024-01-06T12:07:27;3.30;99.90
19025;DHT22;9645;51.448;6.260;2024-01-06T12:10:02;3.20;99.90
19025;DHT22;9645;51.448;6.260;2024-01-06T12:12:33;3.20;99.90
19025;DHT22;9645;51.448;6.260;2024-01-06T12:15:00;3.20;99.90
19025;DHT22;9645;51.448;6.260;2024-01-06T12:17:29;3.20;99.90
19025;DHT22;9645;51.448;6.260;2024-01-06T12:19:57;3.20;99.90
19025;DHT22;9645;51.448;6.260;2024-01-06T12:22:25;3.20;99.90
19025;DHT22;9645;51.448;6.260;2024-01-06T12:24:53;3.10;99.90
19025;DHT22;9645;51.448;6.260;2024-01-06T12:27:24;3.10;99.90
19025;DHT22;9645;51.448;6.260;2024-01-06T12:29:53;3.10;99.90
19025;DHT22;9645;51.448;6.260;2024-01-06T12:32:20;3.10;99.90
19025;DHT22;9645;51.448;6.260;2024-01-06T12:34:54;3.10;99.90
19025;DHT22;9645;51.448;6.260;2024-01-06T12:37:23;3.10;99.90
19025;DHT22;9645;51.448;6.260;2024-01-06T12:39:51;3.10;99.90
19025;DHT22;9645;51.448;6.260;2024-01-06T12:42:19;3.10;99.90
19025;DHT22;9645;51.448;6.260;2024-01-06T12:44:49;3.10;99.90
19025;DHT22;9645;51.448;6.260;2024-01-06T12:47:16;3.10;99.90
19025;DHT22;9645;51.448;6.260;2024-01-06T12:49:43;3.00;99.90
19025;DHT22;9645;51.448;6.260;2024-01-06T12:52:11;3.10;99.90
19025;DHT22;9645;51.448;6.260;2024-01-06T12:54:39;3.10;99.90
19025;DHT22;9645;51.448;6.260;2024-01-06T12:57:07;3.10;99.90
19025;DHT22;9645;51.448;6.260;2024-01-06T12:59:43;3.10;99.90
19025;DHT22;9645;51.448;6.260;2024-01-06T13:02:21;3.10;99.90
19025;DHT22;9645;51.448;6.260;2024-01-06T13:04:50;3.10;99.90
19025;DHT22;9645;51.448;6.260;2024-01-06T13:07:18;3.10;99.90
19025;DHT22;9645;51.448;6.260;2024-01-06T13:09:45;3.10;99.90
19025;DHT22;9645;51.448;6.260;2024-01-06T13:12:13;3.10;99.90
19025;DHT22;9645;51.448;6.260;2024-01-06T13:14:40;3.10;99.90
19025;DHT22;9645;51.448;6.260;2024-01-06T13:17:09;3.00;99.90
19025;DHT22;9645;51.448;6.260;2024-01-06T13:19:40;3.00;99.90
19025;DHT22;9645;51.448;6.260;2024-01-06T13:22:08;3.00;99.90
19025;DHT22;9645;51.448;6.260;2024-01-06T13:24:35;2.90;99.90
19025;DHT22;9645;51.448;6.260;2024-01-06T13:27:03;2.90;99.90
19025;DHT22;9645;51.448;6.260;2024-01-06T13:29:30;3.00;99.90
19025;DHT22;9645;51.448;6.260;2024-01-06T13:31:58;2.30;99.90
19025;DHT22;9645;51.448;6.260;2024-01-06T13:34:26;2.90;99.90
19025;DHT22;9645;51.448;6.260;2024-01-06T13:36:56;2.90;99.90
19025;DHT22;9645;51.448;6.260;2024-01-06T13:39:24;2.90;99.90
19025;DHT22;9645;51.448;6.260;2024-01-06T13:41:51;2.80;99.90
19025;DHT22;9645;51.448;6.260;2024-01-06T13:44:18;2.80;99.90
19025;DHT22;9645;51.448;6.260;2024-01-06T13:46:46;2.80;99.90
19025;DHT22;9645;51.448;6.260;2024-01-06T13:49:14;2.90;99.90
19025;DHT22;9645;51.448;6.260;2024-01-06T13:51:41;3.20;99.90
19025;DHT22;9645;51.448;6.260;2024-01-06T13:54:10;2.90;99.90
19025;DHT22;9645;51.448;6.260;2024-01-06T13:56:37;2.90;99.90
19025;DHT22;9645;51.448;6.260;2024-01-06T13:59:04;2.70;99.90
19025;DHT22;9645;51.448;6.260;2024-01-06T14:01:31;2.70;99.90
19025;DHT22;9645;51.448;6.260;2024-01-06T14:03:58;2.70;99.90
19025;DHT22;9645;51.448;6.260;2024-01-06T14:06:25;2.80;99.90
19025;DHT22;9645;51.448;6.260;2024-01-06T14:08:55;2.70;99.90
19025;DHT22;9645;51.448;6.260;2024-01-06T14:11:23;2.70;99.90
19025;DHT22;9645;51.448;6.260;2024-01-06T14:13:52;2.70;99.90
19025;DHT22;9645;51.448;6.260;2024-01-06T14:16:19;2.80;99.90
19025;DHT22;9645;51.448;6.260;2024-01-06T14:18:46;2.80;99.90
19025;DHT22;9645;51.448;6.260;2024-01-06T14:21:13;2.80;99.90
19025;DHT22;9645;51.448;6.260;2024-01-06T14:23:43;2.70;99.90
19025;DHT22;9645;51.448;6.260;2024-01-06T14:26:10;2.70;99.90
19025;DHT22;9645;51.448;6.260;2024-01-06T14:28:39;2.70;99.90
19025;DHT22;9645;51.448;6.260;2024-01-06T14:31:06;2.70;99.90
19025;DHT22;9645;51.448;6.260;2024-01-06T14:33:33;2.60;99.90
19025;DHT22;9645;51.448;6.260;2024-01-06T14:36:00;2.60;99.90
19025;DHT22;9645;51.448;6.260;2024-01-06T14:38:27;2.60;99.90
19025;DHT22;9645;51.448;6.260;2024-01-06T14:40:54;2.70;99.90
19025;DHT22;9645;51.448;6.260;2024-01-06T14:43:21;2.70;99.90
19025;DHT22;9645;51.448;6.260;2024-01-06T14:45:49;2.80;99.90
19025;DHT22;9645;51.448;6.260;2024-01-06T14:48:16;2.70;99.90
19025;DHT22;9645;51.448;6.260;2024-01-06T14:50:43;2.70;99.90
19025;DHT22;9645;51.448;6.260;2024-01-06T14:53:10;2.60;99.90
19025;DHT22;9645;51.448;6.260;2024-01-06T14:55:37;2.60;99.90
19025;DHT22;9645;51.448;6.260;2024-01-06T14:58:04;2.70;99.90
19025;DHT22;9645;51.448;6.260;2024-01-06T15:00:31;2.60;99.90
19025;DHT22;9645;51.448;6.260;2024-01-06T15:03:00;2.60;99.90
19025;DHT22;9645;51.448;6.260;2024-01-06T15:05:27;2.60;99.90
19025;DHT22;9645;51.448;6.260;2024-01-06T15:07:55;2.60;99.90
19025;DHT22;9645;51.448;6.260;2024-01-06T15:10:22;2.60;99.90
19025;DHT22;9645;51.448;6.260;2024-01-06T15:12:49;2.60;99.90
19025;DHT22;9645;51.448;6.260;2024-01-06T15:15:16;2.60;99.90
19025;DHT22;9645;51.448;6.260;2024-01-06T15:17:43;2.60;99.90
19025;DHT22;9645;51.448;6.260;2024-01-06T15:20:12;2.60;99.90
19025;DHT22;9645;51.448;6.260;2024-01-06T15:22:39;2.60;99.90
19025;DHT22;9645;51.448;6.260;2024-01-06T15:25:06;2.60;99.90
19025;DHT22;9645;51.448;6.260;2024-01-06T15:27:35;2.50;99.90
19025;DHT22;9645;51.448;6.260;2024-01-06T15:30:02;2.50;99.90
19025;DHT22;9645;51.448;6.260;2024-01-06T15:32:34;2.50;99.90
19025;DHT22;9645;51.448;6.260;2024-01-06T15:35:01;2.50;99.90
19025;DHT22;9645;51.448;6.260;2024-01-06T15:37:30;2.40;99.90
19025;DHT22;9645;51.448;6.260;2024-01-06T15:39:57;2.50;99.90
19025;DHT22;9645;51.448;6.260;2024-01-06T15:42:25;2.40;99.90
19025;DHT22;9645;51.448;6.260;2024-01-06T15:44:52;2.50;99.90
19025;DHT22;9645;51.448;6.260;2024-01-06T15:47:19;2.50;99.90
19025;DHT22;9645;51.448;6.260;2024-01-06T15:49:46;1.90;99.90
19025;DHT22;9645;51.448;6.260;2024-01-06T15:52:13;2.50;99.90
19025;DHT22;9645;51.448;6.260;2024-01-06T15:54:41;2.50;99.90
19025;DHT22;9645;51.448;6.260;2024-01-06T15:57:08;2.50;99.90
19025;DHT22;9645;51.448;6.260;2024-01-06T15:59:35;2.40;99.90
19025;DHT22;9645;51.448;6.260;2024-01-06T16:02:03;2.50;99.90
19025;DHT22;9645;51.448;6.260;2024-01-06T16:04:29;2.50;99.90
19025;DHT22;9645;51.448;6.260;2024-01-06T16:06:56;2.50;99.90
19025;DHT22;9645;51.448;6.260;2024-01-06T16:09:23;2.50;99.90